Time;durP1;ratioP1;P1;durP2;ratioP2;P2;SDS_P1;SDS_P2;PMS_P1;PMS_P2;Temp;Humidity;BMP_temperature;BMP_pressure;BME280_temperature;BME280_humidity;BME280_pressure;Samples;Min_cycle;Max_cycle;Signal;HPM_P1;HPM_P2
2024/03/18 00:02:08;;;;;;;;;;;;;;;;;;5107868;28;19916;-65
2024/03/18 00:04:33;;;;;;;;;;;;;;;;;;5106843;28;19915;-64
2024/03/18 00:06:58;;;;;;;;;;;;;;;;;;5109179;28;19912;-65
2024/03/18 00:09:23;;;;;;;;;;;;;;;;;;5108218;28;20033;-65
2024/03/18 00:11:49;;;;;;;;;;;;;;;;;;5104195;28;20005;-65
2024/03/18 00:14:14;;;;;;;;;;;;;;;;;;5108802;28;19915;-63
2024/03/18 00:16:39;;;;;;;;;;;;;;;;;;5104334;28;19918;-65
2024/03/18 00:19:04;;;;;;;;;;;;;;;;;;5104086;28;19912;-59
2024/03/18 00:21:29;;;;;;;;;;;;;;;;;;5106835;28;19912;-60
2024/03/18 00:23:54;;;;;;;;;;;;;;;;;;5103931;28;20007;-59
2024/03/18 00:26:20;;;;;;;;;;;;;;;;;;5106358;28;19946;-59
2024/03/18 00:28:45;;;;;;;;;;;;;;;;;;5106377;28;19919;-60
2024/03/18 00:31:13;;;;;;;;;;;;;;;;;;5109166;28;19923;-59
2024/03/18 00:33:38;;;;;;;;;;;;;;;;;;5103630;28;20014;-60
2024/03/18 00:36:03;;;;;;;;;;;;;;;;;;5107540;28;20002;-60
2024/03/18 00:38:28;;;;;;;;;;;;;;;;;;5108531;28;19934;-59
2024/03/18 00:41:44;;;;;;;;;;;;;;;;;;5107094;28;19958;-59
2024/03/18 00:43:41;;;;;;;;;;;;;;;;;;5106264;28;19920;-59
2024/03/18 00:46:07;;;;;;;;;;;;;;;;;;5110475;28;20276;-60
2024/03/18 00:48:32;;;;;;;;;;;;;;;;;;5109246;28;19976;-60
2024/03/18 00:50:57;;;;;;;;;;;;;;;;;;5106982;28;19982;-59
2024/03/18 00:53:22;;;;;;;;;;;;;;;;;;5109781;28;19947;-59
2024/03/18 00:55:47;;;;;;;;;;;;;;;;;;5112544;28;19912;-59
2024/03/18 00:58:13;;;;;;;;;;;;;;;;;;5112003;28;19912;-60
2024/03/18 01:00:38;;;;;;;;;;;;;;;;;;5112067;28;19934;-60
2024/03/18 01:03:03;;;;;;;;;;;;;;;;;;5110358;28;19992;-60
2024/03/18 01:05:28;;;;;;;;;;;;;;;;;;5111788;28;20317;-60
2024/03/18 01:07:53;;;;;;;;;;;;;;;;;;5110291;28;20598;-60
2024/03/18 01:10:18;;;;;;;;;;;;;;;;;;5107158;28;20548;-60
2024/03/18 01:12:44;;;;;;;;;;;;;;;;;;5113344;28;20360;-60
2024/03/18 01:15:10;;;;;;;;;;;;;;;;;;5111255;28;19915;-59
2024/03/18 01:17:35;;;;;;;;;;;;;;;;;;5112311;28;19919;-61
2024/03/18 01:20:00;;;;;;;;;;;;;;;;;;5112286;28;19924;-60
2024/03/18 01:22:25;;;;;;;;;;;;;;;;;;5113787;28;20372;-60
2024/03/18 01:24:51;;;;;;;;;;;;;;;;;;5107500;28;19923;-62
2024/03/18 01:27:18;;;;;;;;;;;;;;;;;;5112483;28;19915;-59
2024/03/18 01:29:45;;;;;;;;;;;;;;;;;;5113283;28;19911;-60
2024/03/18 01:32:10;;;;;;;;;;;;;;;;;;5111650;28;19911;-59
2024/03/18 01:34:35;;;;;;;;;;;;;;;;;;5113357;28;19916;-59
2024/03/18 01:37:00;;;;;;;;;;;;;;;;;;5113015;28;19912;-60
2024/03/18 01:39:25;;;;;;;;;;;;;;;;;;5111877;28;19916;-60
2024/03/18 01:41:51;;;;;;;;;;;;;;;;;;5111713;28;19963;-59
2024/03/18 01:44:16;;;;;;;;;;;;;;;;;;5113243;28;19912;-60
2024/03/18 01:46:41;;;;;;;;;;;;;;;;;;5111033;28;19912;-60
2024/03/18 01:49:06;;;;;;;;;;;;;;;;;;5113319;28;20035;-60
2024/03/18 01:51:31;;;;;;;;;;;;;;;;;;5112357;28;19924;-60
2024/03/18 01:53:56;;;;;;;;;;;;;;;;;;5113207;28;19919;-59
2024/03/18 01:56:21;;;;;;;;;;;;;;;;;;5111841;28;19927;-59
2024/03/18 01:58:49;;;;;;;;;;;;;;;;;;5111320;28;19941;-60
2024/03/18 02:01:15;;;;;;;;;;;;;;;;;;5102837;28;19943;-60
2024/03/18 02:03:40;;;;;;;;;;;;;;;;;;5108732;28;19923;-61
2024/03/18 02:06:06;;;;;;;;;;;;;;;;;;5112106;28;20380;-60
2024/03/18 02:08:31;;;;;;;;;;;;;;;;;;5112154;28;19912;-64
2024/03/18 02:10:56;;;;;;;;;;;;;;;;;;5109242;28;19923;-59
2024/03/18 02:13:22;;;;;;;;;;;;;;;;;;5111784;28;19919;-61
2024/03/18 02:15:47;;;;;;;;;;;;;;;;;;5111995;27;19919;-60
2024/03/18 02:18:12;;;;;;;;;;;;;;;;;;5117700;27;20368;-60
2024/03/18 02:20:37;;;;;;;;;;;;;;;;;;5117060;27;19924;-60
2024/03/18 02:23:03;;;;;;;;;;;;;;;;;;5121656;27;20002;-60
2024/03/18 02:25:28;;;;;;;;;;;;;;;;;;5119240;27;19999;-60
2024/03/18 02:27:53;;;;;;;;;;;;;;;;;;5106553;27;19980;-60
2024/03/18 02:30:19;;;;;;;;;;;;;;;;;;5110270;28;20387;-60
2024/03/18 02:32:44;;;;;;;;;;;;;;;;;;5110379;28;19918;-60
2024/03/18 02:35:11;;;;;;;;;;;;;;;;;;5110747;28;19912;-60
2024/03/18 02:37:36;;;;;;;;;;;;;;;;;;5111710;28;19947;-61
2024/03/18 02:40:01;;;;;;;;;;;;;;;;;;5111878;28;19962;-63
2024/03/18 02:42:26;;;;;;;;;;;;;;;;;;5106388;28;19969;-65
2024/03/18 02:44:51;;;;;;;;;;;;;;;;;;5110334;28;19927;-65
2024/03/18 02:47:17;;;;;;;;;;;;;;;;;;5111762;28;20395;-65
2024/03/18 02:49:43;;;;;;;;;;;;;;;;;;5109553;28;20010;-64
2024/03/18 02:52:08;;;;;;;;;;;;;;;;;;5109806;28;20269;-64
2024/03/18 02:54:33;;;;;;;;;;;;;;;;;;5112183;28;19916;-65
2024/03/18 02:56:58;;;;;;;;;;;;;;;;;;5108169;28;19915;-65
2024/03/18 02:59:23;;;;;;;;;;;;;;;;;;5110844;28;20006;-65
2024/03/18 03:01:49;;;;;;;;;;;;;;;;;;5106323;28;20377;-64
2024/03/18 03:04:15;;;;;;;;;;;;;;;;;;5108775;28;20014;-65
2024/03/18 03:06:40;;;;;;;;;;;;;;;;;;5104088;28;20002;-64
2024/03/18 03:09:06;;;;;;;;;;;;;;;;;;5111126;28;20323;-65
2024/03/18 03:11:31;;;;;;;;;;;;;;;;;;5111152;28;19972;-65
2024/03/18 03:13:56;;;;;;;;;;;;;;;;;;5110066;28;19915;-65
2024/03/18 03:16:21;;;;;;;;;;;;;;;;;;5109787;28;19915;-65
2024/03/18 03:18:46;;;;;;;;;;;;;;;;;;5108250;28;19966;-65
2024/03/18 03:21:11;;;;;;;;;;;;;;;;;;5111278;28;19927;-65
2024/03/18 03:23:37;;;;;;;;;;;;;;;;;;5109748;28;19923;-64
2024/03/18 03:26:02;;;;;;;;;;;;;;;;;;5111593;28;19935;-64
2024/03/18 03:28:28;;;;;;;;;;;;;;;;;;5111303;28;19912;-65
2024/03/18 03:30:53;;;;;;;;;;;;;;;;;;5110424;28;19918;-66
2024/03/18 03:33:18;;;;;;;;;;;;;;;;;;5111319;28;19912;-65
2024/03/18 03:35:43;;;;;;;;;;;;;;;;;;5105285;28;19916;-65
2024/03/18 03:38:09;;;;;;;;;;;;;;;;;;5110988;28;19965;-65
2024/03/18 03:40:34;;;;;;;;;;;;;;;;;;5108464;28;19920;-65
2024/03/18 03:42:59;;;;;;;;;;;;;;;;;;5109741;28;20347;-64
2024/03/18 03:45:24;;;;;;;;;;;;;;;;;;5106757;28;20272;-64
2024/03/18 03:47:50;;;;;;;;;;;;;;;;;;5109989;28;20014;-66
2024/03/18 03:50:15;;;;;;;;;;;;;;;;;;5109886;28;19912;-61
2024/03/18 03:52:40;;;;;;;;;;;;;;;;;;5109282;28;20035;-61
2024/03/18 03:55:05;;;;;;;;;;;;;;;;;;5109771;28;20102;-60
2024/03/18 03:57:30;;;;;;;;;;;;;;;;;;5109079;28;19964;-60
2024/03/18 03:59:55;;;;;;;;;;;;;;;;;;5109668;28;19960;-60
2024/03/18 04:02:20;;;;;;;;;;;;;;;;;;5109275;28;19924;-60
2024/03/18 04:04:45;;;;;;;;;;;;;;;;;;5109442;28;19916;-60
2024/03/18 04:07:11;;;;;;;;;;;;;;;;;;5111063;28;19911;-61
2024/03/18 04:09:36;;;;;;;;;;;;;;;;;;5109280;28;19915;-60
2024/03/18 04:12:01;;;;;;;;;;;;;;;;;;5108766;28;19923;-62
2024/03/18 04:14:26;;;;;;;;;;;;;;;;;;5107508;28;19916;-61
2024/03/18 04:16:51;;;;;;;;;;;;;;;;;;5109564;28;19954;-60
2024/03/18 04:19:17;;;;;;;;;;;;;;;;;;5108914;28;19919;-61
2024/03/18 04:21:42;;;;;;;;;;;;;;;;;;5109631;28;19916;-60
2024/03/18 04:24:10;;;;;;;;;;;;;;;;;;5107134;28;19918;-60
2024/03/18 04:26:35;;;;;;;;;;;;;;;;;;5106364;28;19942;-60
2024/03/18 04:29:01;;;;;;;;;;;;;;;;;;5106993;28;20006;-61
2024/03/18 04:31:26;;;;;;;;;;;;;;;;;;5108175;28;20007;-60
2024/03/18 04:33:51;;;;;;;;;;;;;;;;;;5109122;28;19918;-63
2024/03/18 04:36:16;;;;;;;;;;;;;;;;;;5107319;28;20276;-60
2024/03/18 04:38:41;;;;;;;;;;;;;;;;;;5109113;28;19922;-62
2024/03/18 04:41:06;;;;;;;;;;;;;;;;;;5036449;28;1963585;-60
2024/03/18 04:43:32;;;;;;;;;;;;;;;;;;5109993;28;19912;-61
2024/03/18 04:45:57;;;;;;;;;;;;;;;;;;5109501;28;19911;-60
2024/03/18 04:48:23;;;;;;;;;;;;;;;;;;5109235;28;19920;-62
2024/03/18 04:50:48;;;;;;;;;;;;;;;;;;5109391;28;19918;-61
2024/03/18 04:53:13;;;;;;;;;;;;;;;;;;5110269;28;20417;-60
2024/03/18 04:55:38;;;;;;;;;;;;;;;;;;5110272;28;20462;-61
2024/03/18 04:58:03;;;;;;;;;;;;;;;;;;5109086;28;19911;-61
2024/03/18 05:00:29;;;;;;;;;;;;;;;;;;5108871;28;19929;-64
2024/03/18 05:02:54;;;;;;;;;;;;;;;;;;5108112;28;19920;-65
2024/03/18 05:05:19;;;;;;;;;;;;;;;;;;5107672;28;19912;-65
2024/03/18 05:07:44;;;;;;;;;;;;;;;;;;5107117;28;20322;-64
2024/03/18 05:10:10;;;;;;;;;;;;;;;;;;5110078;28;19923;-65
2024/03/18 05:12:35;;;;;;;;;;;;;;;;;;5109182;28;19920;-65
2024/03/18 05:15:00;;;;;;;;;;;;;;;;;;5109989;28;19916;-65
2024/03/18 05:17:25;;;;;;;;;;;;;;;;;;5109238;28;19911;-64
2024/03/18 05:19:51;;;;;;;;;;;;;;;;;;5108870;28;19930;-66
2024/03/18 05:22:16;;;;;;;;;;;;;;;;;;5107456;28;20279;-64
2024/03/18 05:24:45;;;;;;;;;;;;;;;;;;5108843;28;19922;-64
2024/03/18 05:27:11;;;;;;;;;;;;;;;;;;5109210;28;19934;-65
2024/03/18 05:29:36;;;;;;;;;;;;;;;;;;5108945;28;19916;-66
2024/03/18 05:32:01;;;;;;;;;;;;;;;;;;5109661;28;20076;-65
2024/03/18 05:34:26;;;;;;;;;;;;;;;;;;5106223;28;19912;-65
2024/03/18 05:36:51;;;;;;;;;;;;;;;;;;5109448;28;19911;-66
2024/03/18 05:39:17;;;;;;;;;;;;;;;;;;5107020;28;20298;-65
2024/03/18 05:41:42;;;;;;;;;;;;;;;;;;5113357;28;20498;-65
2024/03/18 05:44:07;;;;;;;;;;;;;;;;;;5113707;28;19915;-65
2024/03/18 05:46:33;;;;;;;;;;;;;;;;;;5111717;28;20334;-66
2024/03/18 05:48:58;;;;;;;;;;;;;;;;;;5113471;28;19947;-65
2024/03/18 05:51:23;;;;;;;;;;;;;;;;;;5110399;28;19912;-65
2024/03/18 05:53:48;;;;;;;;;;;;;;;;;;5112507;28;19911;-66
2024/03/18 05:56:13;;;;;;;;;;;;;;;;;;5108833;28;19916;-65
2024/03/18 05:58:41;;;;;;;;;;;;;;;;;;5113393;28;19912;-66
2024/03/18 06:01:10;;;;;;;;;;;;;;;;;;5112150;28;20467;-65
2024/03/18 06:03:35;;;;;;;;;;;;;;;;;;5111993;28;19980;-65
2024/03/18 06:06:01;;;;;;;;;;;;;;;;;;5112907;28;19911;-65
2024/03/18 06:08:26;;;;;;;;;;;;;;;;;;5114581;27;19911;-66
2024/03/18 06:10:52;;;;;;;;;;;;;;;;;;5112640;28;19912;-65
2024/03/18 06:13:17;;;;;;;;;;;;;;;;;;5110098;28;19916;-64
2024/03/18 06:15:42;;;;;;;;;;;;;;;;;;5111242;28;20324;-65
2024/03/18 06:18:08;;;;;;;;;;;;;;;;;;5111442;28;19912;-65
2024/03/18 06:20:33;;;;;;;;;;;;;;;;;;5106165;28;19931;-65
2024/03/18 06:22:58;;;;;;;;;;;;;;;;;;5112419;28;19927;-62
2024/03/18 06:28:07;;;;;;;;;;;;;;;;;;5112243;28;19923;-63
2024/03/18 06:30:32;;;;;;;;;;;;;;;;;;5111384;28;19912;-63
2024/03/18 06:32:57;;;;;;;;;;;;;;;;;;5111842;28;19934;-63
2024/03/18 06:35:22;;;;;;;;;;;;;;;;;;5106438;28;19923;-63
2024/03/18 06:37:48;;;;;;;;;;;;;;;;;;5112030;28;20351;-63
2024/03/18 06:40:13;;;;;;;;;;;;;;;;;;5109507;28;19930;-64
2024/03/18 06:42:38;;;;;;;;;;;;;;;;;;5111574;28;19980;-64
2024/03/18 06:45:04;;;;;;;;;;;;;;;;;;5110696;28;19916;-63
2024/03/18 06:47:29;;;;;;;;;;;;;;;;;;5110681;28;20040;-63
2024/03/18 06:49:54;;;;;;;;;;;;;;;;;;5110517;28;19923;-63
2024/03/18 06:52:19;;;;;;;;;;;;;;;;;;5110634;28;19912;-64
2024/03/18 06:54:44;;;;;;;;;;;;;;;;;;5111461;28;19912;-63
2024/03/18 06:57:10;;;;;;;;;;;;;;;;;;5109898;28;19912;-63
2024/03/18 06:59:35;;;;;;;;;;;;;;;;;;5104222;28;19919;-66
2024/03/18 07:02:00;;;;;;;;;;;;;;;;;;5108886;28;20030;-63
2024/03/18 07:04:25;;;;;;;;;;;;;;;;;;5111126;28;20308;-64
2024/03/18 07:06:50;;;;;;;;;;;;;;;;;;5108168;27;19925;-63
2024/03/18 07:09:15;;;;;;;;;;;;;;;;;;5111265;28;19995;-66
2024/03/18 07:11:41;;;;;;;;;;;;;;;;;;5110904;28;19911;-62
2024/03/18 07:14:06;;;;;;;;;;;;;;;;;;5110769;28;20288;-63
2024/03/18 07:16:31;;;;;;;;;;;;;;;;;;5107899;28;20010;-61
2024/03/18 07:18:56;;;;;;;;;;;;;;;;;;5111187;28;19961;-63
2024/03/18 07:21:22;;;;;;;;;;;;;;;;;;5107283;28;19919;-64
2024/03/18 07:23:47;;;;;;;;;;;;;;;;;;5104554;28;19912;-63
2024/03/18 07:26:12;;;;;;;;;;;;;;;;;;5110648;28;19911;-62
2024/03/18 07:28:37;;;;;;;;;;;;;;;;;;5108050;28;19916;-61
2024/03/18 07:31:03;;;;;;;;;;;;;;;;;;5107269;28;19919;-61
2024/03/18 07:33:28;;;;;;;;;;;;;;;;;;5107960;28;19919;-62
2024/03/18 07:35:53;;;;;;;;;;;;;;;;;;5107349;28;19912;-62
2024/03/18 07:38:18;;;;;;;;;;;;;;;;;;5109176;28;19915;-62
2024/03/18 07:40:43;;;;;;;;;;;;;;;;;;5108741;28;19999;-62
2024/03/18 07:43:11;;;;;;;;;;;;;;;;;;5110620;28;19927;-62
2024/03/18 07:45:36;;;;;;;;;;;;;;;;;;5104928;28;20002;-62
2024/03/18 07:48:04;;;;;;;;;;;;;;;;;;5108953;28;20011;-62
2024/03/18 07:50:29;;;;;;;;;;;;;;;;;;5106408;28;20372;-62
2024/03/18 07:52:54;;;;;;;;;;;;;;;;;;5110824;28;19912;-62
2024/03/18 07:55:20;;;;;;;;;;;;;;;;;;5108113;28;19916;-62
2024/03/18 07:57:45;;;;;;;;;;;;;;;;;;5110868;28;19980;-62
2024/03/18 08:00:11;;;;;;;;;;;;;;;;;;5109353;28;20274;-63
2024/03/18 08:02:36;;;;;;;;;;;;;;;;;;5109836;28;19916;-61
2024/03/18 08:05:01;;;;;;;;;;;;;;;;;;5109409;28;19926;-62
2024/03/18 08:07:27;;;;;;;;;;;;;;;;;;5109399;27;19919;-63
2024/03/18 08:09:52;;;;;;;;;;;;;;;;;;5110425;28;19927;-63
2024/03/18 08:12:17;;;;;;;;;;;;;;;;;;5102851;28;19922;-62
2024/03/18 08:14:43;;;;;;;;;;;;;;;;;;5110720;28;19992;-62
2024/03/18 08:17:09;;;;;;;;;;;;;;;;;;5108335;28;19916;-63
2024/03/18 08:19:34;;;;;;;;;;;;;;;;;;5102287;28;20022;-63
2024/03/18 08:22:00;;;;;;;;;;;;;;;;;;5105064;28;19918;-62
2024/03/18 08:24:25;;;;;;;;;;;;;;;;;;5110470;28;19926;-62
2024/03/18 08:26:54;;;;;;;;;;;;;;;;;;5105518;28;19915;-63
2024/03/18 08:29:19;;;;;;;;;;;;;;;;;;5106453;28;19912;-63
2024/03/18 08:31:44;;;;;;;;;;;;;;;;;;5107843;28;19939;-62
2024/03/18 08:34:09;;;;;;;;;;;;;;;;;;5103528;28;19958;-63
2024/03/18 08:36:34;;;;;;;;;;;;;;;;;;5107165;28;19916;-63
2024/03/18 08:39:00;;;;;;;;;;;;;;;;;;5107041;28;19926;-62
2024/03/18 08:41:25;;;;;;;;;;;;;;;;;;5104125;28;19934;-63
2024/03/18 08:43:50;;;;;;;;;;;;;;;;;;5105712;28;19912;-63
2024/03/18 08:46:15;;;;;;;;;;;;;;;;;;5105374;28;19915;-63
2024/03/18 08:48:41;;;;;;;;;;;;;;;;;;5105265;28;19912;-62
2024/03/18 08:51:07;;;;;;;;;;;;;;;;;;5108176;28;19919;-63
2024/03/18 08:53:32;;;;;;;;;;;;;;;;;;5109615;28;19912;-63
2024/03/18 08:55:57;;;;;;;;;;;;;;;;;;5109722;28;19912;-63
2024/03/18 08:58:22;;;;;;;;;;;;;;;;;;5109301;28;19994;-62
2024/03/18 09:00:48;;;;;;;;;;;;;;;;;;5106298;28;19926;-63
2024/03/18 09:03:13;;;;;;;;;;;;;;;;;;5107083;28;20371;-63
2024/03/18 09:05:38;;;;;;;;;;;;;;;;;;5109357;28;19915;-63
2024/03/18 09:08:04;;;;;;;;;;;;;;;;;;5110978;28;19912;-63
2024/03/18 09:10:29;;;;;;;;;;;;;;;;;;5107216;28;19939;-63
2024/03/18 09:12:54;;;;;;;;;;;;;;;;;;5107923;28;20261;-63
2024/03/18 09:15:19;;;;;;;;;;;;;;;;;;5112620;28;19914;-63
2024/03/18 09:17:45;;;;;;;;;;;;;;;;;;5113579;28;19939;-63
2024/03/18 09:20:10;;;;;;;;;;;;;;;;;;5111808;28;19916;-63
2024/03/18 09:22:36;;;;;;;;;;;;;;;;;;5110952;28;19920;-62
2024/03/18 09:25:03;;;;;;;;;;;;;;;;;;5113782;28;19912;-63
2024/03/18 09:27:28;;;;;;;;;;;;;;;;;;5109274;28;19937;-63
2024/03/18 09:29:53;;;;;;;;;;;;;;;;;;5113614;28;19915;-63
2024/03/18 09:32:18;;;;;;;;;;;;;;;;;;5113071;28;19943;-64
2024/03/18 09:34:44;;;;;;;;;;;;;;;;;;5113793;28;19912;-63
2024/03/18 09:37:09;;;;;;;;;;;;;;;;;;5111161;28;19915;-63
2024/03/18 09:39:36;;;;;;;;;;;;;;;;;;5110803;28;20280;-62
2024/03/18 09:42:01;;;;;;;;;;;;;;;;;;5113417;28;20373;-63
2024/03/18 09:44:26;;;;;;;;;;;;;;;;;;5112667;28;20424;-62
2024/03/18 09:46:51;;;;;;;;;;;;;;;;;;5113112;28;19966;-63
2024/03/18 09:49:16;;;;;;;;;;;;;;;;;;5112615;28;19912;-63
2024/03/18 09:51:42;;;;;;;;;;;;;;;;;;5113294;28;19912;-64
2024/03/18 09:54:07;;;;;;;;;;;;;;;;;;5112128;28;19911;-62
2024/03/18 09:56:34;;;;;;;;;;;;;;;;;;5112884;28;19912;-62
2024/03/18 09:58:59;;;;;;;;;;;;;;;;;;5111900;28;20002;-63
2024/03/18 10:01:25;;;;;;;;;;;;;;;;;;5112983;28;19991;-63
2024/03/18 10:03:50;;;;;;;;;;;;;;;;;;5113096;28;19916;-62
2024/03/18 10:06:17;;;;;;;;;;;;;;;;;;5110730;28;19976;-63
2024/03/18 10:08:42;;;;;;;;;;;;;;;;;;5113176;28;20376;-63
2024/03/18 10:11:08;;;;;;;;;;;;;;;;;;5108768;28;19915;-62
2024/03/18 10:13:33;;;;;;;;;;;;;;;;;;5112626;28;19912;-63
2024/03/18 10:15:58;;;;;;;;;;;;;;;;;;5111741;28;19918;-64
2024/03/18 10:18:23;;;;;;;;;;;;;;;;;;5112586;28;19916;-63
2024/03/18 10:20:48;;;;;;;;;;;;;;;;;;5107440;28;20010;-62
2024/03/18 10:23:13;;;;;;;;;;;;;;;;;;5112209;28;19923;-63
2024/03/18 10:25:39;;;;;;;;;;;;;;;;;;5112585;28;19912;-63
2024/03/18 10:28:04;;;;;;;;;;;;;;;;;;5109521;28;19947;-63
2024/03/18 10:30:31;;;;;;;;;;;;;;;;;;5111334;28;19972;-62
2024/03/18 10:32:57;;;;;;;;;;;;;;;;;;5111882;28;20450;-63
2024/03/18 10:35:26;;;;;;;;;;;;;;;;;;5111227;28;19915;-63
2024/03/18 10:37:51;;;;;;;;;;;;;;;;;;5110408;28;19920;-62
2024/03/18 10:40:16;;;;;;;;;;;;;;;;;;5112139;28;19939;-62
2024/03/18 10:42:41;;;;;;;;;;;;;;;;;;5109424;28;19935;-63
2024/03/18 10:45:06;;;;;;;;;;;;;;;;;;5110444;28;19968;-63
2024/03/18 10:47:31;;;;;;;;;;;;;;;;;;5104116;28;19920;-63
2024/03/18 10:49:57;;;;;;;;;;;;;;;;;;5109067;28;20352;-59
2024/03/18 10:52:22;;;;;;;;;;;;;;;;;;5111392;28;19950;-59
2024/03/18 10:54:47;;;;;;;;;;;;;;;;;;5102476;28;19920;-58
2024/03/18 10:57:12;;;;;;;;;;;;;;;;;;5111738;28;19908;-59
2024/03/18 10:59:37;;;;;;;;;;;;;;;;;;5108603;28;20007;-62
2024/03/18 11:02:02;;;;;;;;;;;;;;;;;;5108215;28;19965;-59
2024/03/18 11:04:29;;;;;;;;;;;;;;;;;;5109163;28;19919;-58
2024/03/18 11:06:57;;;;;;;;;;;;;;;;;;5110428;28;20022;-59
2024/03/18 11:09:22;;;;;;;;;;;;;;;;;;5107857;28;19908;-60
2024/03/18 11:11:48;;;;;;;;;;;;;;;;;;5111308;28;20020;-59
2024/03/18 11:14:13;;;;;;;;;;;;;;;;;;5109463;28;20377;-59
2024/03/18 11:16:38;;;;;;;;;;;;;;;;;;5109414;28;19912;-59
2024/03/18 11:19:03;;;;;;;;;;;;;;;;;;5108657;28;19920;-60
2024/03/18 11:21:28;;;;;;;;;;;;;;;;;;5109040;28;19915;-59
2024/03/18 11:23:53;;;;;;;;;;;;;;;;;;5111582;28;19958;-59
2024/03/18 11:26:18;;;;;;;;;;;;;;;;;;5107607;28;19919;-59
2024/03/18 11:28:45;;;;;;;;;;;;;;;;;;5110139;28;19919;-58
2024/03/18 11:31:10;;;;;;;;;;;;;;;;;;5109641;28;20018;-59
2024/03/18 11:33:35;;;;;;;;;;;;;;;;;;5105402;28;19916;-60
2024/03/18 11:36:00;;;;;;;;;;;;;;;;;;5108449;28;20262;-59
2024/03/18 11:38:26;;;;;;;;;;;;;;;;;;5107295;28;19930;-60
2024/03/18 11:40:51;;;;;;;;;;;;;;;;;;5110983;28;19923;-61
2024/03/18 11:43:16;;;;;;;;;;;;;;;;;;5108171;28;19966;-59
2024/03/18 11:45:41;;;;;;;;;;;;;;;;;;5109745;28;20273;-60
2024/03/18 11:48:06;;;;;;;;;;;;;;;;;;5104681;28;20014;-59
2024/03/18 11:50:31;;;;;;;;;;;;;;;;;;5109925;28;19969;-59
2024/03/18 11:52:56;;;;;;;;;;;;;;;;;;5107351;28;19915;-59
2024/03/18 11:55:22;;;;;;;;;;;;;;;;;;5110657;28;19924;-60
2024/03/18 11:57:47;;;;;;;;;;;;;;;;;;5108084;28;19912;-59
2024/03/18 12:00:12;;;;;;;;;;;;;;;;;;5109433;28;19915;-60
2024/03/18 12:02:37;;;;;;;;;;;;;;;;;;5109852;28;19919;-60
2024/03/18 12:05:02;;;;;;;;;;;;;;;;;;5108174;28;20002;-60
2024/03/18 12:07:27;;;;;;;;;;;;;;;;;;5109196;28;19918;-59
2024/03/18 12:09:52;;;;;;;;;;;;;;;;;;5108756;28;19920;-60
2024/03/18 12:12:18;;;;;;;;;;;;;;;;;;5109682;28;19920;-59
2024/03/18 12:14:43;;;;;;;;;;;;;;;;;;5107330;28;20069;-59
2024/03/18 12:17:08;;;;;;;;;;;;;;;;;;5110717;28;19980;-60
2024/03/18 12:19:33;;;;;;;;;;;;;;;;;;5107764;28;20334;-59
2024/03/18 12:21:58;;;;;;;;;;;;;;;;;;5110161;28;19912;-60
2024/03/18 12:29:52;;;;;;;;;;;;;;;;;;5106619;28;19981;-60
2024/03/18 12:32:17;;;;;;;;;;;;;;;;;;5106159;28;19920;-59
2024/03/18 12:34:43;;;;;;;;;;;;;;;;;;5109778;28;19916;-58
2024/03/18 12:37:09;;;;;;;;;;;;;;;;;;5110606;28;19964;-59
2024/03/18 12:39:34;;;;;;;;;;;;;;;;;;5109507;28;19923;-59
2024/03/18 12:42:02;;;;;;;;;;;;;;;;;;5110602;28;20018;-60
2024/03/18 12:44:27;;;;;;;;;;;;;;;;;;5109186;28;19911;-59
2024/03/18 12:46:52;;;;;;;;;;;;;;;;;;5109541;28;19920;-59
2024/03/18 12:49:17;;;;;;;;;;;;;;;;;;5111486;28;20594;-59
2024/03/18 12:51:42;;;;;;;;;;;;;;;;;;5108053;28;19916;-60
2024/03/18 12:54:09;;;;;;;;;;;;;;;;;;5113157;28;19950;-60
2024/03/18 12:56:34;;;;;;;;;;;;;;;;;;5112803;28;19911;-59
2024/03/18 12:58:59;;;;;;;;;;;;;;;;;;5114039;28;19919;-59
2024/03/18 13:01:24;;;;;;;;;;;;;;;;;;5112138;28;19916;-59
2024/03/18 13:03:51;;;;;;;;;;;;;;;;;;5114048;28;19923;-60
2024/03/18 13:06:18;;;;;;;;;;;;;;;;;;5114067;28;19916;-60
2024/03/18 13:08:43;;;;;;;;;;;;;;;;;;5111641;28;20380;-59
2024/03/18 13:11:08;;;;;;;;;;;;;;;;;;5114252;28;19993;-63
2024/03/18 13:13:35;;;;;;;;;;;;;;;;;;5113218;28;20660;-63
2024/03/18 13:16:01;;;;;;;;;;;;;;;;;;5114108;28;20560;-64
2024/03/18 13:18:26;;;;;;;;;;;;;;;;;;5111367;28;19918;-64
2024/03/18 13:20:51;;;;;;;;;;;;;;;;;;5111800;28;20000;-63
2024/03/18 13:23:17;;;;;;;;;;;;;;;;;;5109740;28;19912;-63
2024/03/18 13:25:42;;;;;;;;;;;;;;;;;;5112798;28;19912;-64
2024/03/18 13:28:07;;;;;;;;;;;;;;;;;;5111190;28;19919;-63
2024/03/18 13:30:33;;;;;;;;;;;;;;;;;;5111461;28;19919;-63
2024/03/18 13:32:58;;;;;;;;;;;;;;;;;;5112206;28;19912;-63
2024/03/18 13:35:24;;;;;;;;;;;;;;;;;;5107346;28;19912;-63
2024/03/18 13:37:49;;;;;;;;;;;;;;;;;;5110846;28;19911;-63
2024/03/18 13:40:15;;;;;;;;;;;;;;;;;;5110643;28;19926;-63
2024/03/18 13:42:41;;;;;;;;;;;;;;;;;;5111336;28;20388;-63
2024/03/18 13:45:08;;;;;;;;;;;;;;;;;;5110120;28;19985;-63
2024/03/18 13:47:33;;;;;;;;;;;;;;;;;;5110996;28;19916;-63
2024/03/18 13:49:58;;;;;;;;;;;;;;;;;;5111890;28;19918;-63
2024/03/18 13:52:23;;;;;;;;;;;;;;;;;;5110828;28;19912;-64
2024/03/18 13:54:48;;;;;;;;;;;;;;;;;;5112157;28;19912;-63
2024/03/18 13:57:14;;;;;;;;;;;;;;;;;;5110184;28;19912;-64
2024/03/18 13:59:43;;;;;;;;;;;;;;;;;;5110561;28;19920;-63
2024/03/18 14:02:08;;;;;;;;;;;;;;;;;;5110100;28;20283;-63
2024/03/18 14:04:34;;;;;;;;;;;;;;;;;;5111943;28;19916;-63
2024/03/18 14:06:59;;;;;;;;;;;;;;;;;;5110013;28;20318;-63
2024/03/18 14:09:24;;;;;;;;;;;;;;;;;;5108376;28;19922;-63
2024/03/18 14:11:50;;;;;;;;;;;;;;;;;;5112440;28;19915;-63
2024/03/18 14:14:15;;;;;;;;;;;;;;;;;;5111159;28;20279;-64
2024/03/18 14:16:40;;;;;;;;;;;;;;;;;;5110695;28;19964;-62
2024/03/18 14:19:05;;;;;;;;;;;;;;;;;;5111156;28;19920;-60
2024/03/18 14:21:30;;;;;;;;;;;;;;;;;;5106196;28;19923;-60
2024/03/18 14:23:56;;;;;;;;;;;;;;;;;;5110887;28;19927;-59
2024/03/18 14:26:21;;;;;;;;;;;;;;;;;;5107155;28;19918;-58
2024/03/18 14:28:48;;;;;;;;;;;;;;;;;;5110881;28;19912;-58
2024/03/18 14:31:13;;;;;;;;;;;;;;;;;;5111382;28;19912;-59
2024/03/18 14:33:38;;;;;;;;;;;;;;;;;;5110210;28;19918;-58
2024/03/18 14:36:03;;;;;;;;;;;;;;;;;;5110759;28;19911;-59
2024/03/18 14:38:28;;;;;;;;;;;;;;;;;;5109391;28;19984;-60
2024/03/18 14:40:53;;;;;;;;;;;;;;;;;;5112236;28;19919;-59
2024/03/18 14:43:19;;;;;;;;;;;;;;;;;;5110268;28;20343;-59
2024/03/18 14:45:44;;;;;;;;;;;;;;;;;;5110685;28;19920;-59
2024/03/18 14:48:09;;;;;;;;;;;;;;;;;;5110183;28;19943;-59
2024/03/18 14:50:34;;;;;;;;;;;;;;;;;;5110025;28;20009;-60
2024/03/18 14:52:59;;;;;;;;;;;;;;;;;;5109159;28;20385;-60
2024/03/18 14:55:25;;;;;;;;;;;;;;;;;;5107142;28;19995;-59
2024/03/18 14:57:50;;;;;;;;;;;;;;;;;;5109816;28;19914;-59
2024/03/18 15:00:17;;;;;;;;;;;;;;;;;;5106749;28;19927;-59
2024/03/18 15:02:42;;;;;;;;;;;;;;;;;;5109880;28;19927;-60
2024/03/18 15:05:07;;;;;;;;;;;;;;;;;;5107807;28;20565;-59
2024/03/18 15:07:32;;;;;;;;;;;;;;;;;;5109425;28;19916;-58
2024/03/18 15:09:57;;;;;;;;;;;;;;;;;;5110603;28;19911;-58
2024/03/18 15:12:22;;;;;;;;;;;;;;;;;;5107524;28;19912;-59
2024/03/18 15:14:47;;;;;;;;;;;;;;;;;;5110774;28;19912;-59
2024/03/18 15:17:13;;;;;;;;;;;;;;;;;;5109214;28;19938;-59
2024/03/18 15:19:38;;;;;;;;;;;;;;;;;;5109759;28;19923;-59
2024/03/18 15:22:03;;;;;;;;;;;;;;;;;;5109271;28;19938;-58
2024/03/18 15:24:38;;;;;;;;;;;;;;;;;;5109274;28;19948;-59
2024/03/18 15:29:47;;;;;;;;;;;;;;;;;;5108700;28;20003;-59
2024/03/18 15:32:15;;;;;;;;;;;;;;;;;;5109162;28;20002;-60
2024/03/18 15:34:40;;;;;;;;;;;;;;;;;;5108835;28;19916;-59
2024/03/18 15:37:05;;;;;;;;;;;;;;;;;;5109310;28;19999;-59
2024/03/18 15:39:31;;;;;;;;;;;;;;;;;;5110403;28;19919;-59
2024/03/18 15:41:56;;;;;;;;;;;;;;;;;;5107621;28;19952;-59
2024/03/18 15:44:21;;;;;;;;;;;;;;;;;;5109905;28;19927;-59
2024/03/18 15:46:46;;;;;;;;;;;;;;;;;;5107884;28;19923;-60
2024/03/18 15:49:12;;;;;;;;;;;;;;;;;;5108959;28;20017;-62
2024/03/18 15:51:37;;;;;;;;;;;;;;;;;;5113494;27;19990;-60
2024/03/18 15:54:02;;;;;;;;;;;;;;;;;;5117180;27;19976;-60
2024/03/18 15:56:27;;;;;;;;;;;;;;;;;;5116585;27;20386;-60
2024/03/18 15:58:52;;;;;;;;;;;;;;;;;;5109122;27;20390;-60
2024/03/18 16:01:18;;;;;;;;;;;;;;;;;;5108169;28;19919;-59
2024/03/18 16:03:43;;;;;;;;;;;;;;;;;;5109551;28;19915;-60
2024/03/18 16:06:08;;;;;;;;;;;;;;;;;;5108748;28;19925;-60
2024/03/18 16:08:33;;;;;;;;;;;;;;;;;;5087496;28;19943;-60
2024/03/18 16:10:58;;;;;;;;;;;;;;;;;;5108575;28;19918;-60
2024/03/18 16:13:23;;;;;;;;;;;;;;;;;;5106958;28;19974;-60
2024/03/18 16:15:49;;;;;;;;;;;;;;;;;;5104094;28;20352;-61
2024/03/18 16:18:14;;;;;;;;;;;;;;;;;;5108697;28;21152;-60
2024/03/18 16:20:39;;;;;;;;;;;;;;;;;;5104200;28;19916;-60
2024/03/18 16:23:04;;;;;;;;;;;;;;;;;;5108112;28;19919;-61
2024/03/18 16:25:29;;;;;;;;;;;;;;;;;;5108638;28;19916;-60
2024/03/18 16:27:54;;;;;;;;;;;;;;;;;;5106827;28;19955;-60
2024/03/18 16:30:20;;;;;;;;;;;;;;;;;;5108144;28;19916;-63
2024/03/18 16:32:45;;;;;;;;;;;;;;;;;;5106418;28;19951;-60
2024/03/18 16:35:12;;;;;;;;;;;;;;;;;;5106588;28;20319;-60
2024/03/18 16:37:37;;;;;;;;;;;;;;;;;;5106844;28;19912;-60
2024/03/18 16:40:05;;;;;;;;;;;;;;;;;;5108734;28;19916;-60
2024/03/18 16:42:30;;;;;;;;;;;;;;;;;;5107301;28;19927;-60
2024/03/18 16:44:55;;;;;;;;;;;;;;;;;;5108629;28;19912;-60